^^

NEARBY METAR REPORTS

KSQI - Sterling Rockfal, Illinois, USA
Distance from station: ESE 17mi, 27km
Updated: 06/21/2018 3:56am
NOT Current
Mist, Overcast
Mist, Overcast
 Wind from E
Wind: E 7 mph , 11 km/h
Temperature: 64°F , 18°C
Dew Point: 64°F , 18°C
Humidity: 100%
Barometer: 29.77 inHg , 1008.1 hPa
Clouds: Overcast
Visibility: 4 miles , 6 km
Cloud details: Overcast 600 ft
2018/06/21 08:56 KSQI 210856Z AUTO 09006KT 4SM BR OVC006 18/18 A2977 RMK AO2 RAE09 CIG 004V008 SLP093 6//// T01830178 PNO $
KCWI - Clinton Muni, Iowa, USA
Distance from station: W 17mi, 28km
Updated: 06/21/2018 4:56am
Rain, Mist, Overcast
Rain, Mist, Overcast
 Wind from ESE
Wind: ESE 10 mph , 17 km/h
Temperature: 66°F , 19°C
Dew Point: 66°F , 19°C
Humidity: 100%
Barometer: 29.77 inHg , 1008.1 hPa
Clouds: Overcast
Visibility: 2 1/2 miles , 4 km
Cloud details: Mostly Cloudy 400 ft
Overcast 900 ft
2018/06/21 09:56 KCWI 210956Z AUTO 12009KT 2 1/2SM RA BR BKN004 OVC009 19/19 A2977 RMK AO2 RAB15 SLP095 P0006 T01940189
KSFY - Savanna/Tritown, Illinois, USA
Distance from station: NNW 17mi, 28km
Updated: 06/21/2018 4:55am
Mist, Overcast
Mist, Overcast
 Wind from E
Wind: E 8 mph , 13 km/h
Temperature: 64°F , 18°C
Dew Point: 63°F , 17°C
Humidity: 94%
Barometer: 29.77 inHg , 1008.1 hPa
Clouds: Overcast
Visibility: 4 miles , 6 km
Cloud details: Overcast 800 ft
2018/06/21 09:55 KSFY 210955Z AUTO 10007KT 4SM BR OVC008 18/17 A2977 RMK AO2
KDVN - Davenport/Quad C, Iowa, USA
Distance from station: WSW 34mi, 55km
Updated: 06/21/2018 4:52am
Light rain, Overcast
Light rain, Overcast
 Wind from SE
Wind: SE 10 mph , 17 km/h
Temperature: 66°F , 19°C
Dew Point: 66°F , 19°C
Humidity: 100%
Barometer: 29.76 inHg , 1007.8 hPa
Clouds: Overcast
Visibility: 10 miles , 16 km
Cloud details: Partly Cloudy 600 ft
Mostly Cloudy 2000 ft
Overcast 3200 ft
2018/06/21 09:52 KDVN 210952Z AUTO 13009KT 10SM -RA SCT006 BKN020 OVC032 19/19 A2976 RMK AO2 SLP069 P0036 T01940189
KFEP - Freeport, Illinois, USA
Distance from station: NE 36mi, 58km
Updated: 06/21/2018 4:55am
Mist, Overcast
Mist, Overcast
 Wind from ENE
Wind: ENE 9 mph , 15 km/h
Temperature: 63°F , 17°C
Dew Point: 63°F , 17°C
Humidity: 100%
Barometer: 29.81 inHg , 1009.5 hPa
Clouds: Overcast
Visibility: 5 miles , 8 km
Cloud details: Overcast 900 ft
2018/06/21 09:55 KFEP 210955Z AUTO 07008KT 5SM BR OVC009 17/17 A2981 RMK AO2 T01680165
KMLI - Moline/Quad City, Illinois, USA
Distance from station: SW 38mi, 61km
Updated: 06/21/2018 4:52am
Overcast
Overcast
 Wind from SE
Wind: SE 6 mph , 9 km/h
Temperature: 70°F , 21°C
Dew Point: 66°F , 19°C
Humidity: 88%
Barometer: 29.74 inHg , 1007.1 hPa
Clouds: Overcast
Visibility: 7 miles , 11 km
Cloud details: Mostly Cloudy 1000 ft
Overcast 1600 ft
2018/06/21 09:52 KMLI 210952Z AUTO 13005KT 7SM BKN010 OVC016 21/19 A2974 RMK AO2 RAE35 CIG 006V013 SLP067 P0066 T02060194
KRPJ - Rochelle/Koritz, Illinois, USA
Distance from station: E 46mi, 75km
Updated: 06/21/2018 4:55am
Mist, Overcast
Mist, Overcast
 Wind from ENE
Wind: ENE 6 mph , 9 km/h
Temperature: 64°F , 18°C
Dew Point: 63°F , 17°C
Humidity: 94%
Barometer: 29.80 inHg , 1009.1 hPa
Clouds: Overcast
Visibility: 4 miles , 6 km
Cloud details: Overcast 600 ft
2018/06/21 09:55 KRPJ 210955Z AUTO 07005KT 4SM BR OVC006 18/17 A2980 RMK AO2 T01750172
KRFD - Rockford, Illinois, USA
Distance from station: ENE 52mi, 84km
Updated: 06/21/2018 4:54am
Overcast
Overcast
 Wind from ENE
Wind: ENE 8 mph , 13 km/h
Temperature: 63°F , 17°C
Dew Point: 61°F , 16°C
Humidity: 94%
Barometer: 29.80 inHg , 1009.1 hPa
Clouds: Overcast
Visibility: 8 miles , 13 km
Cloud details: Overcast 700 ft
2018/06/21 09:54 KRFD 210954Z 07007KT 8SM OVC007 17/16 A2980 RMK AO2 SLP089 T01720161
KVYS - Peru, Illinois, USA
Distance from station: SE 54mi, 86km
Updated: 06/21/2018 4:55am
Mist, Overcast
Mist, Overcast
 Wind from E
Wind: E 5 mph , 7 km/h
Temperature: 68°F , 20°C
Dew Point: 66°F , 19°C
Humidity: 94%
Barometer: 29.78 inHg , 1008.5 hPa
Clouds: Overcast
Visibility: 4 miles , 6 km
Cloud details: Overcast 600 ft
2018/06/21 09:55 KVYS 210955Z AUTO 08004KT 4SM BR OVC006 20/19 A2978 RMK AO2 T02000192
KDBQ - Dubuque, Iowa, USA
Distance from station: NW 55mi, 88km
Updated: 06/21/2018 4:53am
Mist, Overcast
Mist, Overcast
 Wind from E
Wind: E 14 mph , 22 km/h
Temperature: 64°F , 18°C
Dew Point: 63°F , 17°C
Humidity: 94%
Barometer: 29.77 inHg , 1008.1 hPa
Clouds: Overcast
Visibility: 3 miles , 5 km
Cloud details: Overcast 400 ft
2018/06/21 09:53 KDBQ 210953Z AUTO 10012KT 3SM BR OVC004 18/17 A2977 RMK AO2 RAE12B29E38 SLP075 P0000 T01780167